createdAt,value
2022-10-18T00:00:06.357Z,10.20
2022-10-18T00:02:33.533Z,10.20
2022-10-18T00:05:00.309Z,10.20
2022-10-18T00:07:27.170Z,10.10
2022-10-18T00:09:53.942Z,10.10
2022-10-18T00:12:20.633Z,10.10
2022-10-18T00:14:50.751Z,10.00
2022-10-18T00:17:18.022Z,10.00
2022-10-18T00:19:44.952Z,10.00
2022-10-18T00:22:11.692Z,9.90
2022-10-18T00:24:38.434Z,9.90
2022-10-18T00:27:05.155Z,9.90
2022-10-18T00:29:31.826Z,9.80
2022-10-18T00:31:58.541Z,9.80
2022-10-18T00:34:25.259Z,9.80
2022-10-18T00:36:52.012Z,9.70
2022-10-18T00:39:21.688Z,9.70
2022-10-18T00:41:49.742Z,9.70
2022-10-18T00:44:16.470Z,9.60
2022-10-18T00:46:45.832Z,9.60
2022-10-18T00:49:30.540Z,9.70
2022-10-18T00:51:59.320Z,9.70
2022-10-18T00:54:29.856Z,9.60
2022-10-18T00:56:57.036Z,9.60
2022-10-18T00:59:24.727Z,9.60
2022-10-18T01:01:51.701Z,9.70
2022-10-18T01:04:20.881Z,9.70
2022-10-18T01:09:45.469Z,9.60
2022-10-18T01:12:49.740Z,9.60
2022-10-18T01:15:54.617Z,9.60
2022-10-18T01:18:37.534Z,9.60
2022-10-18T01:21:34.706Z,9.60
2022-10-18T01:24:21.391Z,9.60
2022-10-18T01:27:12.660Z,9.60
2022-10-18T01:30:01.131Z,9.60
2022-10-18T01:32:37.676Z,9.60
2022-10-18T01:35:11.146Z,9.70
2022-10-18T01:37:39.878Z,9.70
2022-10-18T01:40:08.556Z,9.70
2022-10-18T01:42:35.506Z,9.70
2022-10-18T01:45:04.295Z,9.70
2022-10-18T01:47:31.670Z,9.70
2022-10-18T01:50:00.578Z,9.70
2022-10-18T01:52:27.388Z,9.70
2022-10-18T01:54:55.807Z,9.80
2022-10-18T01:57:45.347Z,9.80
2022-10-18T02:00:24.077Z,9.80
2022-10-18T02:03:23.298Z,9.70
2022-10-18T02:06:19.234Z,9.80
2022-10-18T02:09:09.307Z,9.90
2022-10-18T02:11:39.217Z,9.80
2022-10-18T02:14:12.760Z,9.90
2022-10-18T02:16:44.473Z,9.90
2022-10-18T02:19:14.277Z,9.90
2022-10-18T02:21:43.595Z,9.90
2022-10-18T02:24:12.899Z,9.90
2022-10-18T02:26:39.768Z,10.00
2022-10-18T02:29:07.482Z,10.00
2022-10-18T02:31:44.624Z,10.00
2022-10-18T02:34:20.139Z,10.10
2022-10-18T02:36:50.298Z,10.10
2022-10-18T02:39:27.628Z,10.10
2022-10-18T02:41:56.020Z,10.10
2022-10-18T02:44:23.376Z,10.10
2022-10-18T02:46:50.129Z,10.20
2022-10-18T02:49:16.885Z,10.20
2022-10-18T02:51:43.628Z,10.20
2022-10-18T02:54:10.672Z,10.30
2022-10-18T02:56:37.381Z,10.30
2022-10-18T02:59:05.632Z,10.30
2022-10-18T03:01:33.249Z,10.30
2022-10-18T03:04:00.196Z,10.30
2022-10-18T03:06:26.915Z,10.30
2022-10-18T03:08:53.758Z,10.30
2022-10-18T03:11:20.715Z,10.30
2022-10-18T03:13:47.390Z,10.40
2022-10-18T03:16:14.119Z,10.40
2022-10-18T03:18:40.830Z,10.40
2022-10-18T03:21:08.331Z,10.40
2022-10-18T03:23:35.270Z,10.40
2022-10-18T03:26:02.279Z,10.40
2022-10-18T03:28:29.082Z,10.40
2022-10-18T03:31:03.928Z,10.50
2022-10-18T03:33:32.325Z,10.40
2022-10-18T03:35:59.088Z,10.40
2022-10-18T03:38:25.984Z,10.40
2022-10-18T03:40:52.695Z,10.50
2022-10-18T03:43:19.595Z,10.50
2022-10-18T03:45:46.343Z,10.40
2022-10-18T03:48:13.215Z,10.40
2022-10-18T03:50:39.935Z,10.50
2022-10-18T03:53:06.738Z,10.40
2022-10-18T03:55:33.464Z,10.50
2022-10-18T03:58:00.182Z,10.50
2022-10-18T04:00:26.945Z,10.50
2022-10-18T04:02:55.890Z,10.60
2022-10-18T04:05:24.178Z,10.60
2022-10-18T04:07:51.105Z,10.50
2022-10-18T04:10:18.721Z,10.50
2022-10-18T04:12:45.548Z,10.50
2022-10-18T04:15:12.386Z,10.60
2022-10-18T04:17:39.158Z,10.60
2022-10-18T04:20:06.600Z,10.60
2022-10-18T04:22:33.407Z,10.60
2022-10-18T04:25:00.132Z,10.60
2022-10-18T04:27:26.974Z,10.60
2022-10-18T04:29:53.659Z,10.60
2022-10-18T04:32:20.337Z,10.60
2022-10-18T04:34:47.060Z,10.60
2022-10-18T04:37:13.834Z,10.60
2022-10-18T04:39:40.548Z,10.60
2022-10-18T04:42:07.236Z,10.60
2022-10-18T04:44:34.409Z,10.60
2022-10-18T04:47:01.093Z,10.60
2022-10-18T04:49:27.782Z,10.60
2022-10-18T04:51:54.492Z,10.60
2022-10-18T04:54:22.860Z,10.60
2022-10-18T04:56:51.871Z,10.60
2022-10-18T04:59:18.652Z,10.70
2022-10-18T05:01:45.641Z,10.70
2022-10-18T05:04:12.714Z,10.70
2022-10-18T05:06:39.753Z,10.60
2022-10-18T05:09:06.583Z,10.70
2022-10-18T05:11:33.410Z,10.70
2022-10-18T05:14:00.273Z,10.70
2022-10-18T05:16:28.452Z,10.60
2022-10-18T05:18:55.171Z,10.60
2022-10-18T05:21:21.918Z,10.60
2022-10-18T05:23:48.600Z,10.70
2022-10-18T05:26:15.315Z,10.70
2022-10-18T05:28:42.137Z,10.70
2022-10-18T05:31:11.611Z,10.80
2022-10-18T05:33:38.839Z,10.70
2022-10-18T05:36:06.232Z,10.70
2022-10-18T05:38:33.170Z,10.80
2022-10-18T05:41:03.440Z,10.70
2022-10-18T05:43:30.353Z,10.80
2022-10-18T05:45:57.144Z,10.80
2022-10-18T05:48:24.089Z,10.90
2022-10-18T05:50:50.790Z,10.80
2022-10-18T05:53:37.060Z,10.80
2022-10-18T05:56:04.981Z,10.80
2022-10-18T05:58:31.870Z,10.90
2022-10-18T06:01:00.843Z,10.90
2022-10-18T06:03:27.809Z,10.90
2022-10-18T06:06:09.877Z,10.90
2022-10-18T06:08:37.834Z,10.90
2022-10-18T06:11:15.906Z,10.90
2022-10-18T06:13:44.805Z,11.00
2022-10-18T06:16:13.079Z,11.00
2022-10-18T06:18:40.464Z,11.00
2022-10-18T06:21:08.077Z,11.00
2022-10-18T06:23:35.597Z,11.00
2022-10-18T06:26:06.966Z,11.00
2022-10-18T06:28:37.737Z,11.10
2022-10-18T06:31:05.834Z,11.00
2022-10-18T06:33:34.224Z,11.00
2022-10-18T06:36:24.085Z,11.10
2022-10-18T06:38:51.411Z,11.10
2022-10-18T06:41:19.306Z,11.20
2022-10-18T06:43:54.066Z,11.20
2022-10-18T06:46:24.647Z,11.20
2022-10-18T06:48:51.372Z,11.20
2022-10-18T06:51:18.503Z,11.20
2022-10-18T06:53:59.074Z,11.20
2022-10-18T06:56:32.257Z,11.20
2022-10-18T07:01:30.669Z,11.20
2022-10-18T07:03:57.823Z,11.20
2022-10-18T07:06:24.600Z,11.20
2022-10-18T07:08:52.919Z,11.20
2022-10-18T07:11:24.086Z,11.20
2022-10-18T07:13:51.338Z,11.20
2022-10-18T07:16:19.353Z,11.30
2022-10-18T07:18:51.265Z,11.20
2022-10-18T07:21:22.559Z,11.30
2022-10-18T07:23:49.999Z,11.40
2022-10-18T07:26:32.196Z,11.40
2022-10-18T07:29:10.897Z,11.50
2022-10-18T07:31:39.037Z,11.60
2022-10-18T07:34:06.923Z,11.70
2022-10-18T07:36:33.832Z,11.80
2022-10-18T07:39:00.670Z,11.90
2022-10-18T07:41:27.440Z,12.00
2022-10-18T07:43:54.305Z,12.10
2022-10-18T07:46:22.353Z,12.20
2022-10-18T07:48:49.872Z,12.30
2022-10-18T07:51:17.201Z,12.40
2022-10-18T07:53:44.124Z,12.60
2022-10-18T07:56:17.020Z,12.70
2022-10-18T07:58:45.168Z,12.90
2022-10-18T08:01:12.918Z,13.10
2022-10-18T08:03:40.779Z,13.40
2022-10-18T08:06:09.606Z,13.60
2022-10-18T08:08:38.532Z,13.60
2022-10-18T08:11:11.349Z,13.80
2022-10-18T08:13:38.228Z,14.00
2022-10-18T08:16:07.691Z,14.20
2022-10-18T08:18:35.400Z,14.50
2022-10-18T08:21:04.155Z,14.90
2022-10-18T08:23:30.992Z,15.00
2022-10-18T08:26:01.660Z,15.30
2022-10-18T08:28:28.590Z,15.70
2022-10-18T08:30:55.336Z,15.90
2022-10-18T08:33:22.088Z,16.20
2022-10-18T08:35:59.152Z,16.50
2022-10-18T08:38:26.107Z,16.80
2022-10-18T08:40:53.069Z,17.10
2022-10-18T08:43:43.941Z,17.50
2022-10-18T08:46:14.491Z,17.60
2022-10-18T08:48:47.421Z,17.80
2022-10-18T08:51:39.997Z,18.10
2022-10-18T08:54:14.587Z,18.40
2022-10-18T08:56:46.732Z,18.60
2022-10-18T08:59:14.060Z,19.10
2022-10-18T09:01:51.247Z,19.40
2022-10-18T09:04:47.316Z,19.70
2022-10-18T09:07:20.214Z,19.80
2022-10-18T09:10:17.465Z,20.20
2022-10-18T09:13:11.592Z,20.50
2022-10-18T09:15:47.178Z,20.60
2022-10-18T09:18:38.731Z,20.60
2022-10-18T09:21:50.620Z,20.40
2022-10-18T09:24:26.010Z,20.60
2022-10-18T09:27:06.192Z,21.10
2022-10-18T09:29:47.154Z,21.40
2022-10-18T09:32:44.965Z,21.70
2022-10-18T09:35:22.683Z,21.90
2022-10-18T09:37:53.278Z,21.80
2022-10-18T09:40:25.241Z,21.50
2022-10-18T09:43:13.800Z,21.80
2022-10-18T09:45:43.249Z,21.80
2022-10-18T09:48:36.573Z,21.70
2022-10-18T09:51:12.464Z,21.40
2022-10-18T09:53:43.219Z,21.70
2022-10-18T09:56:17.897Z,21.70
2022-10-18T09:58:49.825Z,21.40
2022-10-18T10:01:21.112Z,21.70
2022-10-18T10:03:47.867Z,21.90
2022-10-18T10:06:17.279Z,22.20
2022-10-18T10:09:14.193Z,21.90
2022-10-18T10:11:51.724Z,21.90
2022-10-18T10:14:26.512Z,21.50
2022-10-18T10:17:03.605Z,21.60
2022-10-18T10:19:34.786Z,21.40
2022-10-18T10:22:10.431Z,21.20
2022-10-18T10:24:51.438Z,21.70
2022-10-18T10:27:24.529Z,21.50
2022-10-18T10:29:56.545Z,21.60
2022-10-18T10:34:54.908Z,21.80
2022-10-18T10:37:34.413Z,21.90
2022-10-18T10:40:19.223Z,21.60
2022-10-18T10:43:13.059Z,21.20
2022-10-18T10:46:02.909Z,21.10
2022-10-18T10:49:08.418Z,21.40
2022-10-18T10:51:43.550Z,21.10
2022-10-18T10:54:18.892Z,20.70
2022-10-18T10:57:11.152Z,20.70
2022-10-18T10:59:45.170Z,20.80
2022-10-18T11:02:15.282Z,21.10
2022-10-18T11:04:42.553Z,21.20
2022-10-18T11:07:09.234Z,21.10
2022-10-18T11:09:56.083Z,21.40
2022-10-18T11:12:34.230Z,21.50
2022-10-18T11:15:14.454Z,21.40
2022-10-18T11:18:00.141Z,21.80
2022-10-18T11:20:36.748Z,21.80
2022-10-18T11:23:14.168Z,21.90
2022-10-18T11:26:07.553Z,21.80
2022-10-18T11:28:41.926Z,22.10
2022-10-18T11:31:27.482Z,22.20
2022-10-18T11:34:09.696Z,22.40
2022-10-18T11:37:30.075Z,22.20
2022-10-18T11:40:27.572Z,22.50
2022-10-18T11:43:17.133Z,22.20
2022-10-18T11:46:05.574Z,22.40
2022-10-18T11:48:51.488Z,22.30
2022-10-18T11:52:07.379Z,21.70
2022-10-18T11:55:18.615Z,21.90
2022-10-18T11:58:11.580Z,22.40
2022-10-18T12:00:52.340Z,22.80
2022-10-18T12:03:41.667Z,22.90
2022-10-18T12:06:16.751Z,23.50
2022-10-18T12:08:48.234Z,23.50
2022-10-18T12:11:28.759Z,23.00
2022-10-18T12:14:02.303Z,22.80
2022-10-18T12:16:51.035Z,22.90
2022-10-18T12:19:27.044Z,23.10
2022-10-18T12:22:05.811Z,23.50
2022-10-18T12:24:34.096Z,23.30
2022-10-18T12:27:02.336Z,23.20
2022-10-18T12:29:58.127Z,23.50
2022-10-18T12:32:34.173Z,23.20
2022-10-18T12:35:09.900Z,23.00
2022-10-18T12:37:42.203Z,22.80
2022-10-18T12:40:21.143Z,22.50
2022-10-18T12:42:50.926Z,21.90
2022-10-18T12:45:34.870Z,21.60
2022-10-18T12:48:05.372Z,21.30
2022-10-18T12:50:38.174Z,21.40
2022-10-18T12:53:19.026Z,21.30
2022-10-18T12:55:49.551Z,21.00
2022-10-18T12:58:22.228Z,20.90
2022-10-18T13:00:49.128Z,20.90
2022-10-18T13:03:18.648Z,20.90
2022-10-18T13:05:53.310Z,20.90
2022-10-18T13:08:35.200Z,20.90
2022-10-18T13:11:01.967Z,20.90
2022-10-18T13:13:47.562Z,21.00
2022-10-18T13:16:34.556Z,21.00
2022-10-18T13:19:20.142Z,21.30
2022-10-18T13:22:07.888Z,21.50
2022-10-18T13:24:54.318Z,21.40
2022-10-18T13:27:38.062Z,21.20
2022-10-18T13:30:39.152Z,20.90
2022-10-18T13:33:40.820Z,20.60
2022-10-18T13:36:25.467Z,20.60
2022-10-18T13:38:57.945Z,21.00
2022-10-18T13:41:34.395Z,21.00
2022-10-18T13:44:02.332Z,20.90
2022-10-18T13:46:35.033Z,20.90
2022-10-18T13:49:23.256Z,20.80
2022-10-18T13:52:08.710Z,20.60
2022-10-18T13:54:50.320Z,20.80
2022-10-18T13:57:29.615Z,20.70
2022-10-18T14:00:21.236Z,20.60
2022-10-18T14:03:55.178Z,20.40
2022-10-18T14:06:17.455Z,20.00
2022-10-18T14:09:09.574Z,19.70
2022-10-18T14:12:11.425Z,19.70
2022-10-18T14:14:44.156Z,19.90
2022-10-18T14:17:35.345Z,20.10
2022-10-18T14:20:14.978Z,20.30
2022-10-18T14:22:49.651Z,20.30
2022-10-18T14:25:43.391Z,20.20
2022-10-18T14:28:21.632Z,19.90
2022-10-18T14:30:59.008Z,19.90
2022-10-18T14:33:42.845Z,19.80
2022-10-18T14:36:15.618Z,19.60
2022-10-18T14:38:55.115Z,19.80
2022-10-18T14:41:25.053Z,19.90
2022-10-18T14:43:54.314Z,19.80
2022-10-18T14:46:22.118Z,19.90
2022-10-18T14:49:00.281Z,20.10
2022-10-18T14:51:31.811Z,20.10
2022-10-18T14:53:58.608Z,19.90
2022-10-18T14:56:30.843Z,19.60
2022-10-18T14:59:01.622Z,19.60
2022-10-18T15:01:31.610Z,19.50
2022-10-18T15:04:09.690Z,19.30
2022-10-18T15:06:36.380Z,19.20
2022-10-18T15:09:05.693Z,19.10
2022-10-18T15:11:33.901Z,19.00
2022-10-18T15:14:06.910Z,18.90
2022-10-18T15:16:34.237Z,18.70
2022-10-18T15:19:16.266Z,18.70
2022-10-18T15:22:13.644Z,18.80
2022-10-18T15:24:45.089Z,18.80
2022-10-18T15:27:44.882Z,18.70
2022-10-18T15:30:22.965Z,18.70
2022-10-18T15:32:53.162Z,18.60
2022-10-18T15:35:32.909Z,18.40
2022-10-18T15:38:19.847Z,18.40
2022-10-18T15:40:47.068Z,18.40
2022-10-18T15:43:26.010Z,18.30
2022-10-18T15:45:58.800Z,18.30
2022-10-18T15:48:35.767Z,18.30
2022-10-18T15:51:08.247Z,18.20
2022-10-18T15:53:52.507Z,18.20
2022-10-18T15:56:34.008Z,18.20
2022-10-18T15:59:04.089Z,18.10
2022-10-18T16:01:41.937Z,18.10
2022-10-18T16:04:18.378Z,18.00
2022-10-18T16:06:45.231Z,18.00
2022-10-18T16:09:16.769Z,18.00
2022-10-18T16:11:43.667Z,17.90
2022-10-18T16:14:10.414Z,17.90
2022-10-18T16:16:37.164Z,17.90
2022-10-18T16:19:04.156Z,17.80
2022-10-18T16:21:38.940Z,17.70
2022-10-18T16:24:06.297Z,17.70
2022-10-18T16:26:33.381Z,17.70
2022-10-18T16:29:00.877Z,17.70
2022-10-18T16:31:30.230Z,17.60
2022-10-18T16:33:57.977Z,17.60
2022-10-18T16:36:26.231Z,17.60
2022-10-18T16:38:57.068Z,17.50
2022-10-18T16:41:24.558Z,17.50
2022-10-18T16:43:51.540Z,17.50
2022-10-18T16:46:27.734Z,17.50
2022-10-18T16:48:55.683Z,17.40
2022-10-18T16:51:23.594Z,17.40
2022-10-18T16:53:50.400Z,17.40
2022-10-18T16:56:19.730Z,17.40
2022-10-18T16:58:47.053Z,17.30
2022-10-18T17:01:16.711Z,17.30
2022-10-18T17:03:43.735Z,17.30
2022-10-18T17:06:16.985Z,17.30
2022-10-18T17:08:43.773Z,17.20
2022-10-18T17:11:11.749Z,17.20
2022-10-18T17:13:38.758Z,17.10
2022-10-18T17:16:05.963Z,17.10
2022-10-18T17:18:32.690Z,17.10
2022-10-18T17:21:02.619Z,17.10
2022-10-18T17:23:30.106Z,17.00
2022-10-18T17:26:08.570Z,17.00
2022-10-18T17:28:42.157Z,17.00
2022-10-18T17:31:08.968Z,16.90
2022-10-18T17:33:35.856Z,16.80
2022-10-18T17:36:03.370Z,16.80
2022-10-18T17:38:30.042Z,16.70
2022-10-18T17:40:57.155Z,16.70
2022-10-18T17:43:23.958Z,16.60
2022-10-18T17:45:55.160Z,16.60
2022-10-18T17:48:22.196Z,16.60
2022-10-18T17:50:49.040Z,16.50
2022-10-18T17:53:18.308Z,16.50
2022-10-18T17:55:45.064Z,16.50
2022-10-18T17:58:11.797Z,16.40
2022-10-18T18:00:38.516Z,16.40
2022-10-18T18:03:05.346Z,16.30
2022-10-18T18:05:34.029Z,16.30
2022-10-18T18:08:03.884Z,16.10
2022-10-18T18:10:33.300Z,16.10
2022-10-18T18:13:00.584Z,16.00
2022-10-18T18:15:27.446Z,16.00
2022-10-18T18:17:58.091Z,15.90
2022-10-18T18:20:25.974Z,15.90
2022-10-18T18:22:53.183Z,15.80
2022-10-18T18:25:20.064Z,15.70
2022-10-18T18:27:46.852Z,15.70
2022-10-18T18:30:15.475Z,15.60
2022-10-18T18:32:42.405Z,15.60
2022-10-18T18:35:09.213Z,15.50
2022-10-18T18:37:36.022Z,15.40
2022-10-18T18:40:02.890Z,15.30
2022-10-18T18:42:29.681Z,15.20
2022-10-18T18:44:56.433Z,15.10
2022-10-18T18:47:23.563Z,15.10
2022-10-18T18:49:51.628Z,15.00
2022-10-18T18:52:18.383Z,15.00
2022-10-18T18:54:45.196Z,15.00
2022-10-18T18:57:11.978Z,15.10
2022-10-18T18:59:38.827Z,15.00
2022-10-18T19:02:05.555Z,15.00
2022-10-18T19:04:32.503Z,14.90
2022-10-18T19:06:59.232Z,15.00
2022-10-18T19:09:27.371Z,15.00
2022-10-18T19:11:55.943Z,15.00
2022-10-18T19:14:25.373Z,15.00
2022-10-18T19:16:59.016Z,14.90
2022-10-18T19:19:27.796Z,15.00
2022-10-18T19:21:56.882Z,15.00
2022-10-18T19:24:25.755Z,15.00
2022-10-18T19:26:59.939Z,14.90
2022-10-18T19:29:32.885Z,15.00
2022-10-18T19:32:01.777Z,15.00
2022-10-18T19:34:29.701Z,15.00
2022-10-18T19:36:56.781Z,15.00
2022-10-18T19:39:26.184Z,15.00
2022-10-18T19:41:55.896Z,14.90
2022-10-18T19:44:24.854Z,14.90
2022-10-18T19:46:51.684Z,15.00
2022-10-18T19:49:18.534Z,15.10
2022-10-18T19:51:45.619Z,15.00
2022-10-18T19:54:13.356Z,15.00
2022-10-18T19:56:41.670Z,15.00
2022-10-18T19:59:09.489Z,15.10
2022-10-18T20:01:36.702Z,15.10
2022-10-18T20:04:04.510Z,15.20
2022-10-18T20:06:32.157Z,15.20
2022-10-18T20:08:58.878Z,15.10
2022-10-18T20:11:27.770Z,15.00
2022-10-18T20:13:55.523Z,14.90
2022-10-18T20:16:28.432Z,14.80
2022-10-18T20:19:07.098Z,14.70
2022-10-18T20:21:37.415Z,14.70
2022-10-18T20:24:05.603Z,14.70
2022-10-18T20:26:34.731Z,14.70
2022-10-18T20:29:01.715Z,14.70
2022-10-18T20:31:35.608Z,14.60
2022-10-18T20:34:04.829Z,14.60
2022-10-18T20:36:32.926Z,14.60
2022-10-18T20:39:00.367Z,14.50
2022-10-18T20:41:32.343Z,14.50
2022-10-18T20:44:01.441Z,14.50
2022-10-18T20:46:31.317Z,14.50
2022-10-18T20:48:58.084Z,14.50
2022-10-18T20:51:24.922Z,14.50
2022-10-18T20:53:52.268Z,14.50
2022-10-18T20:56:21.816Z,14.50
2022-10-18T20:58:50.692Z,14.50
2022-10-18T21:01:23.422Z,14.30
2022-10-18T21:03:51.982Z,14.30
2022-10-18T21:06:21.976Z,14.40
2022-10-18T21:08:57.218Z,14.50
2022-10-18T21:11:24.508Z,14.60
2022-10-18T21:14:02.788Z,14.60
2022-10-18T21:16:31.254Z,14.60
2022-10-18T21:19:10.152Z,14.60
2022-10-18T21:21:37.029Z,14.60
2022-10-18T21:24:07.094Z,14.60
2022-10-18T21:26:35.572Z,14.60
2022-10-18T21:29:03.921Z,14.60
2022-10-18T21:31:34.703Z,14.60
2022-10-18T21:34:05.004Z,14.60
2022-10-18T21:36:34.284Z,14.60
2022-10-18T21:39:01.799Z,14.70
2022-10-18T21:41:28.587Z,14.70
2022-10-18T21:43:55.618Z,14.60
2022-10-18T21:46:23.930Z,14.60
2022-10-18T21:48:52.444Z,14.50
2022-10-18T21:51:21.091Z,14.40
2022-10-18T21:53:49.791Z,14.40
2022-10-18T21:56:19.182Z,14.30
2022-10-18T21:58:46.205Z,14.20
2022-10-18T22:01:19.410Z,14.20
2022-10-18T22:03:49.465Z,14.10
2022-10-18T22:06:17.217Z,13.90
2022-10-18T22:08:55.474Z,13.80
2022-10-18T22:11:26.144Z,13.80
2022-10-18T22:13:53.958Z,13.80
2022-10-18T22:16:20.887Z,13.70
2022-10-18T22:18:49.079Z,13.60
2022-10-18T22:21:18.073Z,13.60
2022-10-18T22:23:51.279Z,13.50
2022-10-18T22:26:19.757Z,13.40
2022-10-18T22:28:46.875Z,13.40
2022-10-18T22:31:15.948Z,13.30
2022-10-18T22:33:42.737Z,13.10
2022-10-18T22:36:09.614Z,13.10
2022-10-18T22:38:36.421Z,13.10
2022-10-18T22:41:07.664Z,13.00
2022-10-18T22:43:34.945Z,13.00
2022-10-18T22:46:07.578Z,12.90
2022-10-18T22:48:34.929Z,12.70
2022-10-18T22:51:02.272Z,12.60
2022-10-18T22:53:29.347Z,12.70
2022-10-18T22:55:56.152Z,12.60
2022-10-18T22:58:23.279Z,12.50
2022-10-18T23:00:52.272Z,12.60
2022-10-18T23:03:19.151Z,12.70
2022-10-18T23:05:46.983Z,12.70
2022-10-18T23:08:14.718Z,12.40
2022-10-18T23:10:42.858Z,12.40
2022-10-18T23:13:10.698Z,12.50
2022-10-18T23:15:40.574Z,12.50
2022-10-18T23:18:07.471Z,12.50
2022-10-18T23:20:34.157Z,12.50
2022-10-18T23:23:00.854Z,12.50
2022-10-18T23:25:28.432Z,12.40
2022-10-18T23:27:55.275Z,12.30
2022-10-18T23:30:22.024Z,12.30
2022-10-18T23:32:48.773Z,12.30
2022-10-18T23:35:15.555Z,12.20
2022-10-18T23:37:42.258Z,12.30
2022-10-18T23:40:09.769Z,12.30
2022-10-18T23:42:36.498Z,12.30
2022-10-18T23:45:03.644Z,12.40
2022-10-18T23:47:30.502Z,12.40
2022-10-18T23:49:58.849Z,12.40
2022-10-18T23:52:25.591Z,12.50
2022-10-18T23:54:52.334Z,12.60
2022-10-18T23:57:19.025Z,12.60
2022-10-18T23:59:45.786Z,12.60
